createdAt,value
2022-12-15T00:02:22.510Z,16.12
2022-12-15T00:05:49.971Z,15.93
2022-12-15T00:09:14.209Z,14.70
2022-12-15T00:12:35.463Z,19.62
2022-12-15T00:15:59.694Z,16.25
2022-12-15T00:19:22.825Z,17.00
2022-12-15T00:22:46.345Z,17.48
2022-12-15T00:26:10.038Z,18.92
2022-12-15T00:29:33.062Z,20.30
2022-12-15T00:32:55.769Z,16.80
2022-12-15T00:36:18.649Z,21.65
2022-12-15T00:39:24.350Z,17.15
2022-12-15T00:42:30.098Z,14.53
2022-12-15T00:45:37.712Z,13.05
2022-12-15T00:48:42.546Z,16.05
2022-12-15T00:52:05.324Z,13.65
2022-12-15T00:55:28.168Z,13.48
2022-12-15T00:58:51.778Z,12.95
2022-12-15T01:02:08.440Z,12.95
2022-12-15T01:05:31.793Z,14.10
2022-12-15T01:08:55.457Z,14.70
2022-12-15T01:12:19.474Z,13.45
2022-12-15T01:15:43.776Z,12.37
2022-12-15T01:19:06.888Z,14.55
2022-12-15T01:22:12.820Z,16.90
2022-12-15T01:25:19.592Z,15.30
2022-12-15T01:28:24.345Z,12.05
2022-12-15T01:31:30.206Z,11.57
2022-12-15T01:34:35.628Z,11.95
2022-12-15T01:37:40.892Z,12.35
2022-12-15T01:40:56.591Z,11.65
2022-12-15T01:44:02.464Z,12.95
2022-12-15T01:47:08.821Z,11.50
2022-12-15T01:50:13.708Z,10.65
2022-12-15T01:53:18.704Z,10.38
2022-12-15T01:56:23.732Z,10.88
2022-12-15T01:59:36.894Z,10.60
2022-12-15T02:02:43.833Z,10.40
2022-12-15T02:05:50.555Z,9.95
2022-12-15T02:08:58.992Z,13.93
2022-12-15T02:12:33.744Z,13.00
2022-12-15T02:15:57.905Z,12.63
2022-12-15T02:19:43.126Z,19.50
2022-12-15T02:23:31.806Z,11.35
2022-12-15T02:27:08.411Z,12.78
2022-12-15T02:30:35.373Z,19.00
2022-12-15T02:33:41.693Z,11.75
2022-12-15T02:36:55.464Z,11.68
2022-12-15T02:39:59.905Z,21.65
2022-12-15T02:43:08.366Z,15.10
2022-12-15T02:46:21.853Z,18.60
2022-12-15T02:49:49.921Z,22.02
2022-12-15T02:53:30.627Z,18.90
2022-12-15T02:56:58.601Z,18.20
2022-12-15T03:00:16.268Z,13.55
2022-12-15T03:03:23.674Z,13.05
2022-12-15T03:06:22.102Z,14.55
2022-12-15T03:09:28.162Z,12.63
2022-12-15T03:12:33.954Z,10.85
2022-12-15T03:15:39.445Z,12.63
2022-12-15T03:18:40.110Z,12.47
2022-12-15T03:21:45.118Z,15.38
2022-12-15T03:24:50.682Z,15.72
2022-12-15T03:27:56.265Z,16.57
2022-12-15T03:31:03.229Z,13.48
2022-12-15T03:34:08.985Z,11.12
2022-12-15T03:37:15.487Z,12.68
2022-12-15T03:40:21.508Z,12.10
2022-12-15T03:43:26.579Z,12.30
2022-12-15T03:46:31.767Z,13.55
2022-12-15T03:49:30.810Z,13.35
2022-12-15T03:52:16.432Z,11.97
2022-12-15T03:55:08.919Z,16.12
2022-12-15T03:58:02.789Z,11.50
2022-12-15T04:01:07.611Z,12.63
2022-12-15T04:04:13.076Z,12.73
2022-12-15T04:07:17.944Z,13.45
2022-12-15T04:10:26.317Z,12.20
2022-12-15T04:13:31.451Z,13.80
2022-12-15T04:16:37.613Z,12.55
2022-12-15T04:20:00.771Z,11.53
2022-12-15T04:23:05.964Z,12.18
2022-12-15T04:26:30.562Z,13.05
2022-12-15T04:29:54.406Z,11.03
2022-12-15T04:33:18.374Z,11.78
2022-12-15T04:36:42.074Z,16.32
2022-12-15T04:40:05.960Z,11.63
2022-12-15T04:43:29.384Z,12.60
2022-12-15T04:46:52.219Z,11.85
2022-12-15T04:50:15.552Z,12.53
2022-12-15T04:53:48.875Z,13.30
2022-12-15T04:57:12.740Z,10.55
2022-12-15T05:00:38.690Z,11.60
2022-12-15T05:04:02.832Z,12.33
2022-12-15T05:07:26.421Z,13.55
2022-12-15T05:10:50.951Z,13.80
2022-12-15T05:14:14.566Z,13.10
2022-12-15T05:17:41.383Z,13.85
2022-12-15T05:21:03.908Z,13.62
2022-12-15T05:24:27.622Z,12.23
2022-12-15T05:27:51.447Z,13.35
2022-12-15T05:31:15.907Z,13.83
2022-12-15T05:34:21.338Z,12.20
2022-12-15T05:37:26.910Z,13.03
2022-12-15T05:40:26.608Z,11.18
2022-12-15T05:43:32.892Z,13.60
2022-12-15T05:46:38.749Z,13.35
2022-12-15T05:49:44.859Z,14.35
2022-12-15T05:52:50.495Z,12.47
2022-12-15T05:55:56.001Z,11.48
2022-12-15T05:59:02.022Z,12.65
2022-12-15T06:02:08.417Z,13.88
2022-12-15T06:05:13.942Z,13.18
2022-12-15T06:08:20.391Z,12.93
2022-12-15T06:11:29.377Z,14.45
2022-12-15T06:17:39.647Z,13.22
2022-12-15T06:20:45.328Z,14.13
2022-12-15T06:23:52.433Z,13.72
2022-12-15T06:26:58.063Z,13.48
2022-12-15T06:30:04.694Z,13.45
2022-12-15T06:33:10.417Z,12.45
2022-12-15T06:36:25.363Z,11.93
2022-12-15T06:39:30.697Z,13.58
2022-12-15T06:42:36.711Z,14.68
2022-12-15T06:45:42.205Z,10.90
2022-12-15T06:48:48.605Z,14.50
2022-12-15T06:51:54.620Z,15.83
2022-12-15T06:55:00.538Z,14.98
2022-12-15T06:58:05.437Z,15.13
2022-12-15T07:01:10.811Z,14.53
2022-12-15T07:04:17.710Z,14.43
2022-12-15T07:07:24.945Z,13.62
2022-12-15T07:10:30.946Z,13.83
2022-12-15T07:13:36.043Z,13.40
2022-12-15T07:16:42.229Z,14.13
2022-12-15T07:19:47.968Z,13.95
2022-12-15T07:22:53.891Z,14.68
2022-12-15T07:25:59.375Z,14.13
2022-12-15T07:29:05.280Z,14.18
2022-12-15T07:32:10.278Z,14.50
2022-12-15T07:35:16.803Z,13.18
2022-12-15T07:38:23.086Z,13.62
2022-12-15T07:41:30.264Z,14.78
2022-12-15T07:44:35.332Z,14.18
2022-12-15T07:47:41.151Z,13.72
2022-12-15T07:50:48.219Z,15.65
2022-12-15T07:53:56.638Z,15.77
2022-12-15T07:57:03.273Z,12.88
2022-12-15T08:00:11.596Z,13.28
2022-12-15T08:03:17.412Z,12.28
2022-12-15T08:06:23.968Z,12.58
2022-12-15T08:09:24.005Z,10.20
2022-12-15T08:12:29.129Z,10.23
2022-12-15T08:15:34.243Z,12.20
2022-12-15T08:18:40.426Z,14.30
2022-12-15T08:21:46.109Z,14.15
2022-12-15T08:24:52.889Z,12.20
2022-12-15T08:28:00.405Z,12.98
2022-12-15T08:31:07.055Z,12.47
2022-12-15T08:34:16.231Z,13.68
2022-12-15T08:37:21.687Z,14.55
2022-12-15T08:40:27.415Z,15.10
2022-12-15T08:43:33.611Z,15.63
2022-12-15T08:46:44.779Z,17.02
2022-12-15T08:49:51.586Z,14.10
2022-12-15T08:53:29.126Z,15.78
2022-12-15T08:56:04.086Z,16.48
2022-12-15T08:59:14.585Z,16.60
2022-12-15T09:02:19.649Z,15.18
2022-12-15T09:05:24.954Z,16.70
2022-12-15T09:08:30.931Z,16.17
2022-12-15T09:11:36.434Z,15.85
2022-12-15T09:14:42.585Z,16.60
2022-12-15T09:17:48.354Z,15.65
2022-12-15T09:20:53.253Z,15.58
2022-12-15T09:24:04.961Z,16.32
2022-12-15T09:27:10.316Z,17.50
2022-12-15T09:30:16.347Z,16.25
2022-12-15T09:33:21.877Z,14.53
2022-12-15T09:36:27.276Z,16.50
2022-12-15T09:39:32.855Z,17.27
2022-12-15T09:42:43.817Z,16.17
2022-12-15T09:45:53.902Z,16.50
2022-12-15T09:48:52.784Z,14.03
2022-12-15T09:52:26.188Z,15.60
2022-12-15T09:55:40.806Z,13.35
2022-12-15T09:59:12.502Z,14.00
2022-12-15T10:03:03.283Z,14.65
2022-12-15T10:06:29.816Z,16.00
2022-12-15T10:09:37.829Z,11.97
2022-12-15T10:12:59.098Z,15.15
2022-12-15T10:16:04.740Z,13.18
2022-12-15T10:19:17.836Z,13.48
2022-12-15T10:22:30.945Z,13.43
2022-12-15T10:25:39.967Z,11.97
2022-12-15T10:29:15.838Z,17.48
2022-12-15T10:32:39.321Z,13.75
2022-12-15T10:38:54.170Z,29.72
2022-12-15T10:42:00.482Z,26.90
2022-12-15T10:45:13.417Z,13.13
2022-12-15T10:48:19.000Z,12.55
2022-12-15T10:51:33.365Z,11.48
2022-12-15T10:54:37.809Z,13.25
2022-12-15T10:57:44.667Z,13.55
2022-12-15T11:00:52.885Z,14.68
2022-12-15T11:03:59.811Z,14.87
2022-12-15T11:07:09.184Z,14.83
2022-12-15T11:10:16.066Z,13.65
2022-12-15T11:13:33.203Z,14.95
2022-12-15T11:16:29.590Z,16.85
2022-12-15T11:19:32.582Z,17.05
2022-12-15T11:23:02.933Z,15.20
2022-12-15T11:29:42.047Z,14.60
2022-12-15T11:32:49.499Z,16.87
2022-12-15T11:36:22.350Z,18.77
2022-12-15T11:39:34.923Z,22.77
2022-12-15T11:43:08.273Z,13.50
2022-12-15T11:46:33.110Z,18.35
2022-12-15T11:50:03.944Z,24.90
2022-12-15T11:53:49.333Z,16.07
2022-12-15T11:56:54.460Z,17.32
2022-12-15T12:00:13.350Z,17.73
2022-12-15T12:03:41.824Z,17.70
2022-12-15T12:07:13.166Z,16.97
2022-12-15T12:10:57.333Z,17.92
2022-12-15T12:14:22.667Z,19.98
2022-12-15T12:17:32.318Z,21.68
2022-12-15T12:20:40.044Z,19.80
2022-12-15T12:24:02.806Z,15.68
2022-12-15T12:27:18.649Z,19.42
2022-12-15T12:30:31.703Z,20.92
2022-12-15T12:33:59.886Z,20.23
2022-12-15T12:37:06.543Z,19.55
2022-12-15T12:40:15.305Z,20.43
2022-12-15T12:43:22.882Z,25.08
2022-12-15T12:46:50.694Z,44.63
2022-12-15T12:50:03.473Z,22.80
2022-12-15T12:53:14.860Z,21.48
2022-12-15T12:56:13.770Z,22.95
2022-12-15T12:59:22.905Z,20.88
2022-12-15T13:02:41.009Z,22.80
2022-12-15T13:05:50.512Z,23.07
2022-12-15T13:09:00.454Z,27.20
2022-12-15T13:12:27.568Z,28.55
2022-12-15T13:15:21.467Z,24.43
2022-12-15T13:18:35.941Z,23.25
2022-12-15T13:22:06.350Z,19.87
2022-12-15T13:25:13.130Z,17.67
2022-12-15T13:28:35.522Z,26.20
2022-12-15T13:31:42.769Z,24.85
2022-12-15T13:34:52.327Z,20.48
2022-12-15T13:38:08.875Z,24.52
2022-12-15T13:41:14.242Z,20.10
2022-12-15T13:44:43.353Z,35.45
2022-12-15T13:47:49.202Z,28.60
2022-12-15T13:51:31.933Z,29.98
2022-12-15T13:54:44.261Z,23.38
2022-12-15T13:57:53.611Z,21.50
2022-12-15T14:01:00.392Z,17.37
2022-12-15T14:03:53.293Z,19.90
2022-12-15T14:07:15.223Z,15.80
2022-12-15T14:10:21.748Z,17.42
2022-12-15T14:13:34.752Z,18.77
2022-12-15T14:16:40.904Z,16.55
2022-12-15T14:19:51.155Z,16.93
2022-12-15T14:22:57.644Z,15.83
2022-12-15T14:26:10.071Z,16.45
2022-12-15T14:29:19.153Z,22.60
2022-12-15T14:32:25.665Z,21.55
2022-12-15T14:35:41.946Z,19.00
2022-12-15T14:39:03.618Z,17.25
2022-12-15T14:42:09.208Z,19.87
2022-12-15T14:45:07.150Z,36.53
2022-12-15T14:51:15.657Z,25.75
2022-12-15T14:54:20.239Z,28.07
2022-12-15T14:57:32.968Z,32.67
2022-12-15T15:00:49.903Z,30.72
2022-12-15T15:03:55.950Z,25.95
2022-12-15T15:07:06.686Z,28.20
2022-12-15T15:10:18.726Z,26.73
2022-12-15T15:13:39.965Z,25.02
2022-12-15T15:16:45.124Z,23.00
2022-12-15T15:19:52.711Z,20.72
2022-12-15T15:22:58.529Z,21.77
2022-12-15T15:26:09.142Z,23.12
2022-12-15T15:32:27.591Z,28.12
2022-12-15T15:35:33.312Z,25.17
2022-12-15T15:38:45.390Z,21.97
2022-12-15T15:41:50.565Z,20.05
2022-12-15T15:44:57.141Z,19.25
2022-12-15T15:48:04.993Z,17.40
2022-12-15T15:51:10.782Z,19.82
2022-12-15T15:54:21.385Z,20.65
2022-12-15T15:57:30.014Z,19.40
2022-12-15T16:00:36.104Z,19.42
2022-12-15T16:03:43.220Z,20.92
2022-12-15T16:06:49.118Z,18.77
2022-12-15T16:09:55.017Z,23.02
2022-12-15T16:13:00.458Z,24.65
2022-12-15T16:15:53.405Z,22.17
2022-12-15T16:18:59.874Z,28.27
2022-12-15T16:22:06.043Z,25.48
2022-12-15T16:25:12.581Z,27.27
2022-12-15T16:28:18.058Z,29.82
2022-12-15T16:31:29.112Z,24.57
2022-12-15T16:34:33.764Z,27.70
2022-12-15T16:37:43.176Z,30.97
2022-12-15T16:40:51.761Z,25.57
2022-12-15T16:43:57.890Z,24.50
2022-12-15T16:47:02.538Z,28.15
2022-12-15T16:50:08.504Z,29.52
2022-12-15T16:53:14.866Z,26.90
2022-12-15T16:56:21.144Z,28.23
2022-12-15T16:59:34.884Z,26.35
2022-12-15T17:02:42.358Z,27.90
2022-12-15T17:05:49.576Z,27.85
2022-12-15T17:09:05.109Z,28.80
2022-12-15T17:12:11.115Z,28.70
2022-12-15T17:15:16.412Z,26.10
2022-12-15T17:18:21.827Z,21.97
2022-12-15T17:21:28.445Z,21.35
2022-12-15T17:24:34.626Z,22.17
2022-12-15T17:27:41.297Z,19.35
2022-12-15T17:30:46.741Z,22.32
2022-12-15T17:33:52.396Z,23.20
2022-12-15T17:36:58.472Z,23.92
2022-12-15T17:40:04.778Z,21.12
2022-12-15T17:43:10.647Z,22.22
2022-12-15T17:46:16.383Z,20.62
2022-12-15T17:49:22.691Z,21.65
2022-12-15T17:52:43.948Z,20.02
2022-12-15T17:55:48.646Z,25.15
2022-12-15T17:58:54.173Z,27.80
2022-12-15T18:02:02.034Z,34.48
2022-12-15T18:05:08.169Z,23.87
2022-12-15T18:08:16.685Z,27.27
2022-12-15T18:11:25.743Z,25.88
2022-12-15T18:14:33.342Z,27.13
2022-12-15T18:17:57.673Z,30.85
2022-12-15T18:21:02.695Z,31.65
2022-12-15T18:24:07.913Z,25.90
2022-12-15T18:27:12.806Z,28.52
2022-12-15T18:30:18.552Z,25.95
2022-12-15T18:33:24.029Z,25.68
2022-12-15T18:36:23.559Z,25.00
2022-12-15T18:39:19.863Z,26.90
2022-12-15T18:42:16.138Z,23.45
2022-12-15T18:45:04.429Z,24.05
2022-12-15T18:47:57.687Z,22.90
2022-12-15T18:50:44.188Z,22.45
2022-12-15T18:53:43.838Z,25.97
2022-12-15T18:56:37.118Z,23.35
2022-12-15T18:59:42.588Z,22.03
2022-12-15T19:02:48.429Z,23.10
2022-12-15T19:05:53.122Z,23.12
2022-12-15T19:08:58.872Z,24.30
2022-12-15T19:12:21.679Z,23.35
2022-12-15T19:15:31.194Z,26.35
2022-12-15T19:18:55.864Z,25.43
2022-12-15T19:22:18.692Z,26.02
2022-12-15T19:25:30.026Z,23.90
2022-12-15T19:28:37.966Z,23.42
2022-12-15T19:31:43.323Z,21.52
2022-12-15T19:34:48.856Z,26.42
2022-12-15T19:37:55.915Z,28.27
2022-12-15T19:41:01.664Z,26.05
2022-12-15T19:44:07.799Z,25.40
2022-12-15T19:47:13.301Z,22.95
2022-12-15T19:50:19.023Z,22.82
2022-12-15T19:53:33.894Z,21.45
2022-12-15T19:56:39.518Z,25.55
2022-12-15T19:59:44.733Z,23.22
2022-12-15T20:02:51.481Z,21.57
2022-12-15T20:05:56.693Z,23.80
2022-12-15T20:09:03.946Z,24.37
2022-12-15T20:12:09.496Z,23.12
2022-12-15T20:15:15.729Z,27.75
2022-12-15T20:18:21.426Z,25.20
2022-12-15T20:21:27.275Z,25.02
2022-12-15T20:24:32.981Z,23.60
2022-12-15T20:27:38.531Z,23.02
2022-12-15T20:30:47.009Z,24.18
2022-12-15T20:33:53.008Z,23.10
2022-12-15T20:36:59.127Z,23.62
2022-12-15T20:40:04.497Z,24.32
2022-12-15T20:43:10.709Z,21.68
2022-12-15T20:46:28.521Z,23.52
2022-12-15T20:49:37.748Z,21.27
2022-12-15T20:52:43.888Z,20.65
2022-12-15T20:55:49.353Z,20.00
2022-12-15T20:58:55.684Z,20.37
2022-12-15T21:02:01.428Z,21.42
2022-12-15T21:05:10.672Z,18.92
2022-12-15T21:08:16.245Z,23.12
2022-12-15T21:11:36.075Z,21.37
2022-12-15T21:14:41.817Z,24.35
2022-12-15T21:17:42.126Z,22.37
2022-12-15T21:20:48.270Z,23.83
2022-12-15T21:23:53.620Z,21.20
2022-12-15T21:26:59.774Z,23.05
2022-12-15T21:30:05.683Z,21.23
2022-12-15T21:33:11.482Z,18.70
2022-12-15T21:36:17.524Z,20.12
2022-12-15T21:39:22.835Z,22.07
2022-12-15T21:42:31.235Z,23.02
2022-12-15T21:45:38.056Z,19.40
2022-12-15T21:49:02.009Z,18.48
2022-12-15T21:52:12.608Z,21.40
2022-12-15T21:55:20.333Z,19.07
2022-12-15T21:58:37.090Z,20.92
2022-12-15T22:01:44.444Z,20.80
2022-12-15T22:04:49.807Z,19.70
2022-12-15T22:07:56.723Z,22.58
2022-12-15T22:11:04.489Z,22.42
2022-12-15T22:14:11.194Z,23.18
2022-12-15T22:17:20.740Z,23.15
2022-12-15T22:20:32.249Z,22.80
2022-12-15T22:23:38.009Z,20.50
2022-12-15T22:26:44.170Z,21.40
2022-12-15T22:29:48.665Z,22.67
2022-12-15T22:32:54.326Z,21.55
2022-12-15T22:36:00.352Z,22.02
2022-12-15T22:39:08.280Z,19.60
2022-12-15T22:42:12.002Z,19.82
2022-12-15T22:45:20.774Z,20.43
2022-12-15T22:48:28.673Z,21.90
2022-12-15T22:51:34.354Z,19.85
2022-12-15T22:54:45.611Z,21.05
2022-12-15T22:57:49.597Z,22.00
2022-12-15T23:00:56.437Z,20.85
2022-12-15T23:04:02.311Z,18.30
2022-12-15T23:07:07.162Z,18.10
2022-12-15T23:10:24.270Z,20.75
2022-12-15T23:13:10.588Z,21.65
2022-12-15T23:16:21.150Z,21.70
2022-12-15T23:19:33.209Z,20.30
2022-12-15T23:22:39.533Z,22.30
2022-12-15T23:25:44.421Z,22.40
2022-12-15T23:28:49.923Z,22.48
2022-12-15T23:31:57.546Z,23.05
2022-12-15T23:35:03.493Z,23.50
2022-12-15T23:38:09.311Z,19.98
2022-12-15T23:41:15.902Z,21.73
2022-12-15T23:44:21.239Z,21.40
2022-12-15T23:47:26.931Z,20.45
2022-12-15T23:50:33.400Z,20.80
2022-12-15T23:53:39.678Z,20.00
2022-12-15T23:56:45.473Z,20.02
2022-12-15T23:59:51.555Z,20.77
